createdAt,value
2018-07-01T00:01:00.352Z,78.51
2018-07-01T00:02:10.427Z,78.7
2018-07-01T00:03:20.250Z,78.89
2018-07-01T00:04:30.327Z,78.89
2018-07-01T00:05:40.422Z,78.8
2018-07-01T00:06:50.233Z,78.61
2018-07-01T00:08:00.331Z,78.7
2018-07-01T00:09:10.455Z,78.89
2018-07-01T00:10:20.261Z,78.99
2018-07-01T00:11:30.371Z,78.51
2018-07-01T00:12:40.442Z,78.51
2018-07-01T00:13:50.502Z,78.89
2018-07-01T00:15:00.310Z,78.61
2018-07-01T00:16:10.135Z,78.57
2018-07-01T00:17:20.073Z,78.99
2018-07-01T00:18:29.888Z,78.89
2018-07-01T00:19:39.454Z,78.7
2018-07-01T00:20:49.763Z,78.61
2018-07-01T00:22:00.055Z,78.51
2018-07-01T00:23:09.892Z,78.51
2018-07-01T00:24:19.706Z,78.99
2018-07-01T00:25:29.562Z,78.89
2018-07-01T00:26:39.646Z,78.76
2018-07-01T00:27:49.796Z,78.66
2018-07-01T00:28:59.928Z,78.76
2018-07-01T00:30:10.035Z,78.66
2018-07-01T00:31:20.118Z,78.66
2018-07-01T00:32:30.239Z,78.66
2018-07-01T00:33:40.288Z,78.57
2018-07-01T00:34:50.090Z,78.86
2018-07-01T00:35:59.608Z,78.86
2018-07-01T00:37:10.237Z,78.66
2018-07-01T00:38:20.344Z,78.57
2018-07-01T00:39:30.451Z,78.76
2018-07-01T00:40:40.580Z,78.95
2018-07-01T00:41:50.692Z,78.95
2018-07-01T00:43:00.501Z,78.57
2018-07-01T00:44:10.574Z,78.95
2018-07-01T00:45:20.653Z,78.86
2018-07-01T00:46:30.734Z,78.86
2018-07-01T00:47:40.801Z,78.86
2018-07-01T00:48:50.879Z,78.95
2018-07-01T00:50:00.975Z,78.66
2018-07-01T00:51:11.237Z,78.76
2018-07-01T00:52:21.324Z,78.66
2018-07-01T00:53:31.143Z,78.66
2018-07-01T00:54:41.205Z,78.38
2018-07-01T00:55:51.266Z,78.86
2018-07-01T00:57:01.341Z,78.76
2018-07-01T00:58:11.207Z,78.76
2018-07-01T00:59:21.270Z,78.66
2018-07-01T01:00:31.380Z,78.76
2018-07-01T01:01:41.477Z,78.76
2018-07-01T01:02:51.603Z,79.05
2018-07-01T01:04:01.699Z,78.66
2018-07-01T01:05:11.781Z,78.76
2018-07-01T01:06:21.868Z,78.47
2018-07-01T01:07:31.936Z,78.66
2018-07-01T01:08:42.215Z,78.66
2018-07-01T01:09:52.536Z,78.76
2018-07-01T01:11:02.607Z,78.66
2018-07-01T01:12:12.698Z,78.66
2018-07-01T01:13:22.773Z,78.76
2018-07-01T01:14:32.848Z,78.76
2018-07-01T01:15:42.938Z,78.57
2018-07-01T01:16:52.734Z,78.95
2018-07-01T01:18:02.864Z,78.86
2018-07-01T01:19:12.939Z,78.43
2018-07-01T01:20:22.485Z,78.81
2018-07-01T01:21:32.567Z,78.91
2018-07-01T01:22:42.685Z,78.95
2018-07-01T01:23:52.886Z,78.63
2018-07-01T01:25:02.968Z,78.72
2018-07-01T01:26:13.041Z,78.63
2018-07-01T01:27:23.117Z,78.53
2018-07-01T01:28:32.912Z,78.81
2018-07-01T01:29:42.997Z,78.43
2018-07-01T01:30:53.101Z,78.63
2018-07-01T01:32:03.180Z,78.34
2018-07-01T01:33:13.034Z,78.72
2018-07-01T01:34:22.871Z,78.86
2018-07-01T01:35:32.966Z,78.47
2018-07-01T01:36:43.062Z,78.34
2018-07-01T01:37:53.146Z,78.38
2018-07-01T01:39:03.218Z,78.43
2018-07-01T01:40:13.304Z,78.72
2018-07-01T01:41:23.382Z,78.57
2018-07-01T01:42:33.441Z,79
2018-07-01T01:43:43.513Z,78.76
2018-07-01T01:44:53.571Z,78.66
2018-07-01T01:46:03.655Z,78.72
2018-07-01T01:47:13.723Z,79
2018-07-01T01:48:23.806Z,79
2018-07-01T01:49:33.698Z,78.91
2018-07-01T01:50:43.783Z,78.72
2018-07-01T01:51:53.876Z,78.72
2018-07-01T01:53:03.936Z,78.53
2018-07-01T01:54:13.730Z,79.1
2018-07-01T01:55:24.068Z,78.43
2018-07-01T01:56:34.145Z,78.72
2018-07-01T01:57:44.216Z,79.1
2018-07-01T01:58:54.033Z,78.81
2018-07-01T02:00:04.129Z,78.91
2018-07-01T02:01:14.220Z,78.43
2018-07-01T02:02:24.041Z,78.43
2018-07-01T02:03:34.127Z,78.91
2018-07-01T02:04:44.186Z,78.72
2018-07-01T02:05:54.246Z,78.72
2018-07-01T02:07:04.091Z,78.43
2018-07-01T02:08:14.240Z,78.72
2018-07-01T02:09:24.338Z,78.43
2018-07-01T02:10:34.415Z,78.43
2018-07-01T02:11:44.487Z,78.53
2018-07-01T02:12:54.293Z,78.72
2018-07-01T02:14:04.367Z,78.63
2018-07-01T02:15:14.452Z,78.81
2018-07-01T02:16:24.523Z,78.91
2018-07-01T02:17:34.336Z,78.63
2018-07-01T02:18:44.148Z,78.72
2018-07-01T02:19:54.217Z,78.63
2018-07-01T02:21:04.014Z,78.63
2018-07-01T02:22:14.072Z,78.63
2018-07-01T02:23:24.155Z,78.53
2018-07-01T02:24:34.249Z,78.81
2018-07-01T02:25:46.746Z,78.53
2018-07-01T02:26:56.818Z,78.91
2018-07-01T02:28:06.914Z,78.72
2018-07-01T02:29:17.017Z,78.63
2018-07-01T02:30:27.090Z,78.53
2018-07-01T02:31:36.917Z,78.53
2018-07-01T02:32:47.044Z,78.43
2018-07-01T02:33:57.126Z,78.81
2018-07-01T02:35:06.936Z,78.24
2018-07-01T02:36:17.117Z,78.24
2018-07-01T02:37:27.219Z,78.72
2018-07-01T02:38:37.384Z,78.72
2018-07-01T02:39:47.474Z,78.63
2018-07-01T02:40:57.533Z,78.43
2018-07-01T02:42:07.361Z,78.72
2018-07-01T02:43:17.448Z,78.53
2018-07-01T02:44:27.544Z,78.81
2018-07-01T02:45:37.364Z,78.53
2018-07-01T02:46:47.462Z,78.95
2018-07-01T02:47:57.536Z,78.43
2018-07-01T02:49:07.362Z,78.38
2018-07-01T02:50:17.543Z,78.43
2018-07-01T02:51:27.350Z,78.66
2018-07-01T02:52:37.432Z,78.76
2018-07-01T02:53:47.481Z,78.47
2018-07-01T02:54:57.426Z,78.66
2018-07-01T02:56:07.650Z,78.47
2018-07-01T02:57:17.511Z,78.47
2018-07-01T02:58:27.604Z,78.57
2018-07-01T02:59:37.693Z,78.66
2018-07-01T03:00:47.754Z,78.76
2018-07-01T03:01:57.575Z,78.66
2018-07-01T03:34:34.087Z,72.78
2018-07-01T03:35:44.099Z,73.54
2018-07-01T03:36:53.946Z,74.11
2018-07-01T03:38:04.033Z,75.07
2018-07-01T03:39:14.106Z,75.16
2018-07-01T03:40:24.178Z,75.93
2018-07-01T03:41:34.268Z,76.56
2018-07-01T03:42:44.341Z,76.69
2018-07-01T03:43:54.432Z,77.65
2018-07-01T03:45:04.504Z,77.08
2018-07-01T03:46:14.583Z,77.94
2018-07-01T03:47:24.656Z,77.97
2018-07-01T03:48:34.459Z,78.07
2018-07-01T03:49:44.538Z,77.69
2018-07-01T03:50:54.355Z,78.36
2018-07-01T03:52:04.485Z,78.39
2018-07-01T03:53:14.556Z,78.39
2018-07-01T03:54:24.609Z,78.39
2018-07-01T03:55:34.680Z,78.11
2018-07-01T03:56:44.761Z,78.11
2018-07-01T03:57:54.870Z,78.24
2018-07-01T03:59:04.949Z,77.95
2018-07-01T04:00:15.021Z,77.67
2018-07-01T04:01:25.125Z,77.76
2018-07-01T04:02:34.949Z,78.05
2018-07-01T04:03:45.085Z,77.8
2018-07-01T04:04:55.200Z,77.99
2018-07-01T04:06:05.305Z,77.8
2018-07-01T04:07:15.109Z,77.33
2018-07-01T04:08:25.198Z,77.42
2018-07-01T04:09:35.255Z,77.42
2018-07-01T04:10:45.317Z,77.46
2018-07-01T04:11:55.389Z,77.26
2018-07-01T04:13:05.473Z,77.46
2018-07-01T04:14:15.287Z,77.36
2018-07-01T04:15:25.362Z,77.26
2018-07-01T04:16:35.694Z,77.46
2018-07-01T04:17:45.771Z,77.55
2018-07-01T04:18:55.846Z,77.21
2018-07-01T04:20:05.929Z,77.11
2018-07-01T04:21:16.002Z,77.11
2018-07-01T04:22:26.091Z,77.02
2018-07-01T04:23:36.165Z,76
2018-07-01T04:24:45.966Z,76
2018-07-01T04:25:55.780Z,76.1
2018-07-01T04:27:05.852Z,76.96
2018-07-01T04:28:15.917Z,76.67
2018-07-01T04:29:25.973Z,76.48
2018-07-01T04:30:36.043Z,76.14
2018-07-01T04:31:46.128Z,75.75
2018-07-01T04:32:55.953Z,75.98
2018-07-01T04:34:06.010Z,75.89
2018-07-01T04:35:15.834Z,76.07
2018-07-01T04:36:25.893Z,76.56
2018-07-01T04:37:35.978Z,76.17
2018-07-01T04:38:46.064Z,76.27
2018-07-01T04:39:56.141Z,76.17
2018-07-01T04:41:05.971Z,76.46
2018-07-01T04:42:15.778Z,76.37
2018-07-01T04:43:25.850Z,76.94
2018-07-01T04:44:35.947Z,76.84
2018-07-01T04:45:45.758Z,76.56
2018-07-01T04:46:55.853Z,77.04
2018-07-01T04:48:05.909Z,76.65
2018-07-01T04:49:16.081Z,76.75
2018-07-01T04:50:25.781Z,76.88
2018-07-01T04:51:35.838Z,76.31
2018-07-01T04:52:45.915Z,75.96
2018-07-01T04:53:56.005Z,75.87
2018-07-01T04:55:05.951Z,75.87
2018-07-01T04:56:16.543Z,75.77
2018-07-01T04:57:26.618Z,75.87
2018-07-01T04:58:36.161Z,75.32
2018-07-01T04:59:46.254Z,73.73
2018-07-01T05:00:56.072Z,69.93
2018-07-01T05:02:06.199Z,67.82
2018-07-01T05:03:16.434Z,67.82
2018-07-01T05:04:26.499Z,68.27
2018-07-01T05:05:36.576Z,66.92
2018-07-01T05:06:46.652Z,65.75
2018-07-01T05:07:56.462Z,65.47
2018-07-01T05:09:06.275Z,65.56
2018-07-01T05:10:16.346Z,66.63
2018-07-01T05:11:25.901Z,66.31
2018-07-01T05:12:35.980Z,65.17
2018-07-01T05:13:45.831Z,65.69
2018-07-01T05:14:55.641Z,64.84
2018-07-01T05:16:05.737Z,65.69
2018-07-01T05:17:15.988Z,65.72
2018-07-01T05:18:26.160Z,65.78
2018-07-01T05:19:36.247Z,65.78
2018-07-01T05:20:46.322Z,65.46
2018-07-01T05:21:56.418Z,66.83
2018-07-01T05:23:06.512Z,69.04
2018-07-01T05:24:16.582Z,70.91
2018-07-01T05:25:26.683Z,71.48
2018-07-01T05:26:36.780Z,71.81
2018-07-01T05:27:47.050Z,73.39
2018-07-01T05:28:57.153Z,73.67
2018-07-01T05:30:07.231Z,75.09
2018-07-01T05:31:17.321Z,75.34
2018-07-01T05:32:26.893Z,75.98
2018-07-01T05:33:36.726Z,76.33
2018-07-01T05:34:46.915Z,76.2
2018-07-01T05:35:57.014Z,76.1
2018-07-01T05:37:07.079Z,75.91
2018-07-01T05:38:17.158Z,75.62
2018-07-01T05:39:27.236Z,75.23
2018-07-01T05:40:37.320Z,74.94
2018-07-01T05:41:47.442Z,74.85
2018-07-01T05:42:57.562Z,73.82
2018-07-01T05:44:07.109Z,72.95
2018-07-01T05:45:17.184Z,73.37
2018-07-01T05:46:27.253Z,73.18
2018-07-01T05:47:37.329Z,72.79
2018-07-01T05:48:47.414Z,73.27
2018-07-01T05:49:57.499Z,73.37
2018-07-01T05:51:07.604Z,73.24
2018-07-01T05:52:17.434Z,73.43
2018-07-01T05:53:27.552Z,73.37
2018-07-01T05:54:37.617Z,73.18
2018-07-01T05:55:47.443Z,73.37
2018-07-01T05:56:57.515Z,73.66
2018-07-01T05:58:07.155Z,73.18
2018-07-01T05:59:17.237Z,73.37
2018-07-01T06:00:26.839Z,73.08
2018-07-01T06:01:36.926Z,72.85
2018-07-01T06:02:47.018Z,72.79
2018-07-01T06:03:56.840Z,72.05
2018-07-01T06:05:06.919Z,72.24
2018-07-01T06:06:17.062Z,71.76
2018-07-01T06:07:27.140Z,71.89
2018-07-01T06:08:37.345Z,72.18
2018-07-01T06:09:47.811Z,72.24
2018-07-01T06:10:57.881Z,72.34
2018-07-01T06:12:08.009Z,71.02
2018-07-01T06:13:18.110Z,70.15
2018-07-01T06:14:28.198Z,69.02
2018-07-01T06:15:38.306Z,68.32
2018-07-01T06:16:48.522Z,68.09
2018-07-01T06:17:58.988Z,67.44
2018-07-01T06:19:09.076Z,67.47
2018-07-01T06:20:19.157Z,67.86
2018-07-01T06:21:29.241Z,67.8
2018-07-01T06:22:39.355Z,68.38
2018-07-01T06:23:49.436Z,68.19
2018-07-01T06:24:59.526Z,69.07
2018-07-01T06:26:09.636Z,69.07
2018-07-01T06:27:19.705Z,69.62
2018-07-01T06:28:29.785Z,69.81
2018-07-01T06:29:39.849Z,70.36
2018-07-01T06:30:49.932Z,70.07
2018-07-01T06:32:00.057Z,70.52
2018-07-01T06:33:10.157Z,70.91
2018-07-01T06:34:19.991Z,71.26
2018-07-01T06:35:30.066Z,70.87
2018-07-01T06:36:40.156Z,71.07
2018-07-01T06:37:50.241Z,71.56
2018-07-01T06:39:00.321Z,71.66
2018-07-01T06:40:10.402Z,71.85
2018-07-01T06:41:20.535Z,71.85
2018-07-01T06:42:30.606Z,71.85
2018-07-01T06:43:40.678Z,71.66
2018-07-01T06:44:50.769Z,72.04
2018-07-01T06:46:00.866Z,72.49
2018-07-01T06:47:10.937Z,72.49
2018-07-01T06:48:21.021Z,73.24
2018-07-01T06:49:31.280Z,73.24
2018-07-01T06:50:41.499Z,73.1
2018-07-01T06:51:51.571Z,73.2
2018-07-01T06:53:01.445Z,73.3
2018-07-01T06:54:11.519Z,73
2018-07-01T06:55:21.580Z,73.07
2018-07-01T06:56:31.796Z,73.55
2018-07-01T06:57:42.232Z,73.84
2018-07-01T06:58:52.105Z,74
2018-07-01T07:00:02.198Z,73.8
2018-07-01T07:01:12.290Z,73.84
2018-07-01T07:02:22.442Z,73.26
2018-07-01T07:03:32.726Z,73.46
2018-07-01T07:04:42.861Z,73.46
2018-07-01T07:05:52.949Z,73.42
2018-07-01T07:07:03.039Z,73.96
2018-07-01T07:08:13.115Z,74.84
2018-07-01T07:09:23.211Z,75.38
2018-07-01T07:10:33.280Z,75.73
2018-07-01T07:11:43.366Z,76.18
2018-07-01T07:12:53.467Z,76.14
2018-07-01T07:14:03.525Z,75.85
2018-07-01T07:15:13.621Z,75.95
2018-07-01T07:16:23.931Z,76.33
2018-07-01T07:17:34.129Z,76.39
2018-07-01T07:18:44.225Z,76.39
2018-07-01T07:19:54.300Z,76.39
2018-07-01T07:21:04.148Z,76.74
2018-07-01T07:22:14.263Z,76.45
2018-07-01T07:23:24.101Z,76.64
2018-07-01T07:24:34.083Z,76.39
2018-07-01T07:25:44.087Z,76.29
2018-07-01T07:26:54.161Z,76.2
2018-07-01T07:28:04.004Z,75.71
2018-07-01T07:29:14.096Z,76.29
2018-07-01T07:30:23.914Z,76.39
2018-07-01T07:31:33.996Z,76.55
2018-07-01T07:32:44.088Z,76.06
2018-07-01T07:33:53.908Z,76.42
2018-07-01T07:35:03.992Z,76.7
2018-07-01T07:36:13.830Z,76.61
2018-07-01T07:37:23.399Z,76.61
2018-07-01T07:38:33.497Z,76.61
2018-07-01T07:39:43.574Z,76.9
2018-07-01T07:40:53.680Z,76.12
2018-07-01T07:42:03.486Z,75.93
2018-07-01T07:43:13.290Z,76.06
2018-07-01T07:44:23.125Z,75.97
2018-07-01T07:45:33.198Z,76.06
2018-07-01T07:46:43.280Z,75.97
2018-07-01T07:47:53.383Z,75.87
2018-07-01T07:49:03.470Z,75.68
2018-07-01T07:50:13.546Z,76.06
2018-07-01T07:51:23.615Z,76.35
2018-07-01T07:52:33.722Z,76.26
2018-07-01T07:53:43.822Z,76.22
2018-07-01T07:54:53.924Z,76.03
2018-07-01T07:56:04.051Z,76.32
2018-07-01T07:57:14.178Z,76.42
2018-07-01T07:58:24.254Z,76.61
2018-07-01T07:59:34.309Z,76.61
2018-07-01T08:00:44.143Z,76.51
2018-07-01T08:01:54.037Z,76.51
2018-07-01T08:03:04.022Z,76.51
2018-07-01T08:04:13.839Z,76.7
2018-07-01T08:05:23.943Z,76.42
2018-07-01T08:06:34.020Z,76.12
2018-07-01T08:07:43.313Z,76.32
2018-07-01T08:08:53.410Z,76.03
2018-07-01T08:10:03.480Z,76.32
2018-07-01T08:11:13.553Z,76.61
2018-07-01T08:12:23.909Z,76.32
2018-07-01T08:13:33.194Z,76.22
2018-07-01T08:14:43.271Z,76.51
2018-07-01T08:15:53.358Z,76.12
2018-07-01T08:17:03.440Z,76.03
2018-07-01T08:18:13.557Z,76.51
2018-07-01T08:19:23.657Z,76.22
2018-07-01T08:20:33.791Z,76.45
2018-07-01T08:21:43.878Z,76.06
2018-07-01T08:22:54.054Z,75.97
2018-07-01T08:24:04.140Z,75.97
2018-07-01T08:25:14.232Z,75.91
2018-07-01T08:26:24.319Z,75.62
2018-07-01T08:27:34.401Z,75.23
2018-07-01T08:28:44.491Z,75.07
2018-07-01T08:29:54.631Z,74.88
2018-07-01T08:31:04.737Z,75.17
2018-07-01T08:32:14.829Z,74.05
2018-07-01T08:33:24.916Z,74.38
2018-07-01T08:34:35.066Z,73.99
2018-07-01T08:35:45.131Z,74.41
2018-07-01T08:36:54.985Z,74.41
2018-07-01T08:38:05.421Z,73.73
2018-07-01T08:39:15.489Z,73.73
2018-07-01T08:40:25.603Z,74.12
2018-07-01T08:41:35.435Z,73.67
2018-07-01T08:42:45.524Z,73.22
2018-07-01T08:43:55.697Z,72.87
2018-07-01T08:45:05.858Z,73.26
2018-07-01T08:46:16.042Z,73.36
2018-07-01T08:47:25.705Z,72.97
2018-07-01T08:48:35.800Z,73.04
2018-07-01T08:49:45.684Z,73
2018-07-01T08:50:55.756Z,73.2
2018-07-01T08:52:05.857Z,73.46
2018-07-01T08:53:16.026Z,73.39
2018-07-01T08:54:26.131Z,73.68
2018-07-01T08:55:36.028Z,73.49
2018-07-01T08:56:46.123Z,73.3
2018-07-01T08:57:56.281Z,73.3
2018-07-01T08:59:06.364Z,73.3
2018-07-01T09:00:16.445Z,72.75
2018-07-01T09:01:26.601Z,73.08
2018-07-01T09:02:36.691Z,73.27
2018-07-01T09:03:46.800Z,73.08
2018-07-01T09:04:56.879Z,73.37
2018-07-01T09:06:07.215Z,73.52
2018-07-01T09:07:17.029Z,73.68
2018-07-01T09:08:27.238Z,74.07
2018-07-01T09:09:37.598Z,74.43
2018-07-01T09:10:47.739Z,74.13
2018-07-01T09:11:57.840Z,74.1
2018-07-01T09:13:07.699Z,74.49
2018-07-01T09:14:17.772Z,74.33
2018-07-01T09:15:27.869Z,73.3
2018-07-01T09:16:37.975Z,73.43
2018-07-01T09:17:47.537Z,72.2
2018-07-01T09:18:57.113Z,72.33
2018-07-01T09:20:07.197Z,71.69
2018-07-01T09:21:17.050Z,72.02
2018-07-01T09:22:27.151Z,71.82
2018-07-01T09:23:37.486Z,72.56
2018-07-01T09:24:47.665Z,73.3
2018-07-01T09:25:57.496Z,74.34
2018-07-01T09:27:07.594Z,74.63
2018-07-01T09:28:17.438Z,73.82
2018-07-01T09:29:27.274Z,74.56
2018-07-01T09:30:37.356Z,74.85
2018-07-01T09:31:47.449Z,74.91
2018-07-01T09:32:57.536Z,75.3
2018-07-01T09:34:07.374Z,75.55
2018-07-01T09:35:17.515Z,75.16
2018-07-01T09:36:27.325Z,76
2018-07-01T09:37:37.189Z,75.61
2018-07-01T09:38:47.284Z,76.25
2018-07-01T09:39:57.382Z,76.12
2018-07-01T09:41:07.473Z,76.02
2018-07-01T09:42:17.300Z,76.12
2018-07-01T09:43:27.189Z,75.24
2018-07-01T09:44:37.461Z,74.41
2018-07-01T09:45:47.285Z,73.52
2018-07-01T09:46:57.368Z,72.77
2018-07-01T09:48:07.462Z,72.27
2018-07-01T09:49:17.578Z,72.01
2018-07-01T09:50:27.686Z,72.49
2018-07-01T09:51:38.244Z,72.2
2018-07-01T09:52:48.328Z,72.14
2018-07-01T09:53:58.427Z,72.92
2018-07-01T09:55:08.237Z,72.98
2018-07-01T09:56:18.341Z,73.18
2018-07-01T09:57:28.179Z,73.18
2018-07-01T09:58:38.273Z,74.34
2018-07-01T09:59:48.357Z,74.6
2018-07-01T10:00:58.542Z,74.21
2018-07-01T10:02:08.889Z,74.11
2018-07-01T10:03:18.999Z,74.46
2018-07-01T10:04:28.823Z,74.37
2018-07-01T10:05:38.940Z,73.72
2018-07-01T10:06:48.767Z,73.37
2018-07-01T10:07:58.877Z,72.82
2018-07-01T10:09:08.984Z,72.66
2018-07-01T10:10:19.080Z,72.27
2018-07-01T10:11:29.165Z,71.43
2018-07-01T10:12:39.010Z,71.56
2018-07-01T10:13:48.825Z,71.89
2018-07-01T10:14:58.917Z,71.31
2018-07-01T10:18:49.498Z,73.25
2018-07-01T10:19:59.970Z,73.67
2018-07-01T10:21:10.068Z,74.12
2018-07-01T10:22:20.203Z,74.82
2018-07-01T10:23:30.365Z,75.37
2018-07-01T10:24:40.242Z,76.27
2018-07-01T10:25:50.468Z,76.07
2018-07-01T10:27:00.686Z,75.55
2018-07-01T10:28:10.778Z,75.01
2018-07-01T10:29:20.594Z,73.88
2018-07-01T10:30:30.723Z,73.62
2018-07-01T10:31:40.889Z,72.63
2018-07-01T10:32:50.735Z,72.17
2018-07-01T10:34:00.850Z,71.53
2018-07-01T10:35:10.940Z,71.56
2018-07-01T10:36:21.037Z,72.73
2018-07-01T10:37:31.145Z,72.7
2018-07-01T10:38:40.989Z,73.47
2018-07-01T10:39:51.074Z,73.47
2018-07-01T10:41:01.181Z,73.54
2018-07-01T10:42:11.262Z,73.54
2018-07-01T10:43:21.371Z,72.47
2018-07-01T10:44:31.460Z,73.28
2018-07-01T10:45:41.619Z,73.47
2018-07-01T10:46:51.527Z,72.99
2018-07-01T10:48:01.620Z,73.34
2018-07-01T10:49:11.712Z,73.83
2018-07-01T10:50:21.821Z,73.44
2018-07-01T10:51:31.965Z,73.44
2018-07-01T10:52:41.900Z,73.34
2018-07-01T10:53:52.043Z,74.08
2018-07-01T10:55:02.187Z,74.38
2018-07-01T10:56:12.275Z,73.85
2018-07-01T10:57:22.128Z,74.05
2018-07-01T10:58:32.308Z,74.73
2018-07-01T10:59:42.157Z,74.24
2018-07-01T11:00:52.313Z,74.15
2018-07-01T11:02:02.155Z,74.44
2018-07-01T11:03:12.317Z,73.37
2018-07-01T11:04:22.423Z,72.96
2018-07-01T11:05:32.517Z,73.54
2018-07-01T11:06:42.333Z,73.54
2018-07-01T11:07:52.445Z,73.54
2018-07-01T11:09:02.546Z,74.28
2018-07-01T11:10:12.627Z,74.38
2018-07-01T11:11:22.440Z,74.15
2018-07-01T11:12:32.553Z,74.34
2018-07-01T11:13:42.656Z,74.3
2018-07-01T11:14:52.750Z,75.04
2018-07-01T11:16:02.902Z,75.2
2018-07-01T11:17:13.001Z,74.71
2018-07-01T11:18:23.157Z,74.56
2018-07-01T11:19:33.249Z,74.37
2018-07-01T11:20:43.097Z,74.07
2018-07-01T11:21:53.196Z,73.66
2018-07-01T11:23:03.055Z,72.82
2018-07-01T11:24:13.153Z,73.11
2018-07-01T11:25:23.243Z,73.5
2018-07-01T11:26:33.665Z,73.69
2018-07-01T11:27:43.965Z,73.5
2018-07-01T11:28:53.520Z,73.02
2018-07-01T11:30:03.617Z,72.66
2018-07-01T11:31:13.697Z,72.6
2018-07-01T11:32:23.799Z,72.89
2018-07-01T11:33:33.946Z,73.15
2018-07-01T11:34:43.845Z,73.34
2018-07-01T11:35:53.971Z,72.86
2018-07-01T11:37:04.066Z,73.15
2018-07-01T11:38:14.283Z,72.99
2018-07-01T11:39:24.280Z,73.12
2018-07-01T11:40:34.383Z,73.28
2018-07-01T11:41:44.247Z,74.22
2018-07-01T11:42:54.368Z,73.54
2018-07-01T11:44:04.481Z,74.28
2018-07-01T11:45:14.055Z,73.6
2018-07-01T11:46:24.136Z,73.73
2018-07-01T11:47:34.211Z,73.28
2018-07-01T11:48:44.300Z,73.96
2018-07-01T11:49:54.397Z,74.51
2018-07-01T11:51:04.501Z,75.25
2018-07-01T11:52:14.625Z,75.41
2018-07-01T11:53:24.876Z,75.7
2018-07-01T11:54:34.972Z,75.41
2018-07-01T11:55:45.071Z,75.47
2018-07-01T11:56:54.885Z,76.31
2018-07-01T11:58:05.045Z,76.11
2018-07-01T11:59:14.385Z,75.98
2018-07-01T12:00:24.469Z,76.27
2018-07-01T12:01:34.564Z,75.2
2018-07-01T12:02:44.712Z,74.01
2018-07-01T12:03:54.540Z,74.15
2018-07-01T12:05:19.410Z,73.11
2018-07-01T12:06:29.636Z,73.4
2018-07-01T12:07:39.739Z,73.05
2018-07-01T12:08:50.125Z,72.96
2018-07-01T12:10:00.239Z,73.18
2018-07-01T12:11:10.346Z,73.08
2018-07-01T12:12:20.187Z,72.8
2018-07-01T12:13:30.311Z,72.99
2018-07-01T12:14:40.428Z,73.38
2018-07-01T12:15:50.555Z,74.02
2018-07-01T12:17:00.667Z,74.22
2018-07-01T12:18:10.778Z,74.12
2018-07-01T12:19:20.882Z,74.02
2018-07-01T12:20:31.010Z,73.83
2018-07-01T12:21:40.856Z,74.22
2018-07-01T12:22:50.954Z,74.61
2018-07-01T12:24:01.049Z,73.89
2018-07-01T12:25:11.187Z,73.89
2018-07-01T12:26:20.775Z,74.82
2018-07-01T12:27:30.897Z,74.15
2018-07-01T12:28:41.022Z,74.28
2018-07-01T12:29:51.005Z,74.18
2018-07-01T12:31:01.097Z,74.34
2018-07-01T12:32:11.199Z,73.6
2018-07-01T12:33:21.321Z,72.96
2018-07-01T12:34:31.458Z,72.5
2018-07-01T12:35:41.613Z,72.25
2018-07-01T12:36:51.437Z,71.8
2018-07-01T12:38:01.345Z,72.02
2018-07-01T12:39:11.448Z,71.57
2018-07-01T12:40:21.586Z,72.35
2018-07-01T12:41:31.708Z,73.58
2018-07-01T12:42:41.580Z,73.71
2018-07-01T12:43:51.763Z,74.68
2018-07-01T12:45:01.606Z,74.65
2018-07-01T12:46:11.729Z,74.99
2018-07-01T12:47:21.848Z,75.51
2018-07-01T12:48:31.731Z,75.12
2018-07-01T12:49:41.847Z,74.24
2018-07-01T12:50:51.936Z,75.45
2018-07-01T12:52:02.068Z,75.51
2018-07-01T12:53:11.903Z,75.67
2018-07-01T12:54:22.054Z,76.31
2018-07-01T12:55:31.887Z,76.07
2018-07-01T12:56:42.192Z,76.07
2018-07-01T12:57:52.274Z,76.32
2018-07-01T12:59:02.400Z,75.94
2018-07-01T13:00:12.250Z,76.23
2018-07-01T13:01:22.355Z,75.16
2018-07-01T13:02:32.636Z,73.97
2018-07-01T13:03:42.875Z,73.91
2018-07-01T13:04:52.954Z,73.18
2018-07-01T13:06:03.021Z,73.02
2018-07-01T13:07:12.867Z,72.37
2018-07-01T13:08:22.990Z,72.41
2018-07-01T13:09:33.291Z,71.66
2018-07-01T13:10:43.107Z,71.7
2018-07-01T13:11:53.337Z,71.15
2018-07-01T13:13:03.066Z,71.44
2018-07-01T13:14:13.159Z,71.08
2018-07-01T13:15:23.243Z,71.51
2018-07-01T13:16:33.086Z,70.83
2018-07-01T13:17:43.227Z,72.58
2018-07-01T13:18:53.321Z,72.51
2018-07-01T13:20:03.427Z,73.25
2018-07-01T13:21:13.463Z,73.58
2018-07-01T13:22:23.561Z,73.06
2018-07-01T13:23:33.692Z,73.65
2018-07-01T13:24:43.792Z,73.45
2018-07-01T13:25:53.663Z,73.74
2018-07-01T13:27:03.489Z,73.55
2018-07-01T13:28:13.609Z,72.77
2018-07-01T13:29:23.241Z,73.06
2018-07-01T13:30:33.349Z,72.73
2018-07-01T13:31:43.242Z,72.51
2018-07-01T13:32:53.334Z,72.06
2018-07-01T13:34:03.456Z,71.7
2018-07-01T13:35:13.283Z,71.9
2018-07-01T13:36:22.858Z,72.35
2018-07-01T13:37:32.977Z,72.74
2018-07-01T13:38:43.075Z,73.19
2018-07-01T13:39:52.957Z,73.25
2018-07-01T13:41:03.067Z,73.84
2018-07-01T13:42:13.167Z,73.9
2018-07-01T13:43:23.275Z,74.39
2018-07-01T13:44:32.846Z,74.06
2018-07-01T13:45:42.975Z,74.65
2018-07-01T13:46:53.304Z,74.84
2018-07-01T13:48:03.388Z,74.26
2018-07-01T13:49:13.509Z,74.16
2018-07-01T13:50:23.889Z,73.96
2018-07-01T13:51:33.993Z,73.9
2018-07-01T13:52:43.808Z,73.71
2018-07-01T13:53:53.889Z,73.16
2018-07-01T13:55:04.001Z,72.47
2018-07-01T13:56:14.115Z,73.1
2018-07-01T13:57:24.203Z,72.71
2018-07-01T13:58:34.045Z,72.71
2018-07-01T13:59:43.894Z,72.71
2018-07-01T14:00:54.219Z,72.84
2018-07-01T14:02:04.331Z,72.9
2018-07-01T14:03:14.450Z,73.97
2018-07-01T14:04:24.582Z,74.39
2018-07-01T14:05:34.681Z,74.55
2018-07-01T14:06:44.730Z,74.65
2018-07-01T14:07:54.827Z,75.58
2018-07-01T14:09:04.712Z,75.41
2018-07-01T14:10:14.550Z,75.45
2018-07-01T14:11:24.633Z,75.64
2018-07-01T14:12:34.790Z,75.41
2018-07-01T14:13:44.907Z,75.51
2018-07-01T14:14:55.006Z,75.31
2018-07-01T14:16:05.112Z,75.41
2018-07-01T14:17:15.499Z,75.6
2018-07-01T14:18:25.806Z,75.21
2018-07-01T14:19:35.929Z,75.31
2018-07-01T14:20:45.792Z,75.02
2018-07-01T14:21:55.904Z,75.12
2018-07-01T14:23:06.007Z,75.12
2018-07-01T14:24:15.899Z,74.82
2018-07-01T14:25:26.046Z,75.12
2018-07-01T14:26:36.151Z,75.02
2018-07-01T14:27:46.262Z,74.54
2018-07-01T14:28:56.376Z,75.02
2018-07-01T14:30:06.771Z,74.38
2018-07-01T14:31:17.175Z,74.24
2018-07-01T14:32:27.769Z,74.48
2018-07-01T14:33:38.120Z,74.28
2018-07-01T14:34:48.200Z,74.38
2018-07-01T14:35:58.352Z,74.57
2018-07-01T14:37:08.475Z,74.92
2018-07-01T14:38:18.576Z,75.57
2018-07-01T14:39:28.665Z,75.47
2018-07-01T14:40:38.761Z,75.53
2018-07-01T14:41:48.925Z,75.43
2018-07-01T14:42:59.034Z,76.01
2018-07-01T14:44:08.595Z,76.17
2018-07-01T14:45:18.679Z,76.37
2018-07-01T14:46:28.770Z,75.4
2018-07-01T14:47:38.924Z,75.4
2018-07-01T14:48:48.746Z,75.34
2018-07-01T14:49:58.868Z,75.01
2018-07-01T14:51:08.971Z,75.04
2018-07-01T14:52:19.091Z,75.24
2018-07-01T14:53:29.195Z,75.04
2018-07-01T14:54:39.271Z,75.24
2018-07-01T14:55:49.206Z,75.43
2018-07-01T14:56:59.309Z,74.95
2018-07-01T14:58:09.396Z,74.75
2018-07-01T14:59:19.528Z,74.95
2018-07-01T15:00:29.360Z,75.04
2018-07-01T15:01:39.451Z,75.14
2018-07-01T15:02:49.561Z,75.43
2018-07-01T15:03:59.413Z,75.4
2018-07-01T15:05:09.527Z,75.2
2018-07-01T15:06:19.384Z,75.04
2018-07-01T15:07:29.524Z,75.14
2018-07-01T15:08:39.357Z,75.43
2018-07-01T15:09:49.524Z,74.79
2018-07-01T15:10:59.644Z,75.08
2018-07-01T15:12:09.882Z,74.88
2018-07-01T15:13:19.989Z,74.95
2018-07-01T15:14:30.112Z,74.88
2018-07-01T15:15:40.222Z,75.27
2018-07-01T15:16:50.347Z,75.62
2018-07-01T15:18:00.447Z,76.07
2018-07-01T15:19:10.628Z,76.17
2018-07-01T15:20:20.767Z,75.1
2018-07-01T15:21:30.611Z,75.4
2018-07-01T15:22:40.718Z,75.4
2018-07-01T15:23:50.833Z,75.1
2018-07-01T15:25:00.969Z,75.53
2018-07-01T15:26:10.800Z,75.49
2018-07-01T15:27:20.638Z,75.3
2018-07-01T15:28:30.931Z,75.34
2018-07-01T15:29:41.037Z,75.59
2018-07-01T15:30:51.132Z,76.23
2018-07-01T15:32:01.222Z,76.62
2018-07-01T15:33:11.331Z,76.39
2018-07-01T15:34:21.431Z,76.39
2018-07-01T15:35:31.537Z,76.48
2018-07-01T15:36:41.663Z,76.48
2018-07-01T15:37:51.773Z,76.74
2018-07-01T15:39:02.270Z,77.42
2018-07-01T15:40:12.143Z,77.19